Terminal Aerodrome Forecast
Issued by NWS Cleveland, OH

Home | Current Version | Previous Version | Text Only | Print | Product List | Glossary On
Versions: 1 2 3 4 5 6 7 8 9 10 11 12 13 14 15 16 17 18 19 20 21 22 23 24 25 26 27 28 29 30 31 32 33 34 35 36 37 38 39 40 41 42 43 44 45 46 47 48
124
FTUS41 KCLE 212333
TAFCAK
TAF
KCAK 212333Z 2200/2224 VRB03KT P6SM SCT060
     FM220800 VRB03KT 3SM BR OVC060
      TEMPO 2208/2212 3/4SM BR OVC008
     FM221200 19005KT P6SM BKN200=

USA.gov is the U.S. government's official web portal to all federal, state and local government web resources and services.